createdAt,value
2023-05-14T00:02:54.723Z,12.77
2023-05-14T00:06:56.637Z,12.47
2023-05-14T00:10:58.979Z,12.73
2023-05-14T00:15:00.848Z,13.63
2023-05-14T00:19:02.600Z,12.93
2023-05-14T00:23:04.294Z,12.07
2023-05-14T00:27:07.318Z,12.53
2023-05-14T00:31:09.176Z,12.83
2023-05-14T00:35:10.888Z,13.90
2023-05-14T00:39:13.624Z,13.33
2023-05-14T00:43:15.418Z,13.53
2023-05-14T00:47:17.201Z,14.50
2023-05-14T00:51:19.143Z,14.50
2023-05-14T00:55:20.943Z,15.97
2023-05-14T00:59:25.810Z,17.13
2023-05-14T01:03:27.683Z,19.60
2023-05-14T01:08:00.977Z,22.23
2023-05-14T01:12:21.282Z,18.80
2023-05-14T01:16:23.355Z,17.60
2023-05-14T01:20:26.625Z,17.40
2023-05-14T01:24:28.469Z,17.13
2023-05-14T01:28:32.848Z,17.37
2023-05-14T01:32:34.662Z,15.93
2023-05-14T01:36:36.490Z,15.40
2023-05-14T01:40:38.197Z,15.53
2023-05-14T01:44:39.971Z,15.97
2023-05-14T01:48:41.639Z,15.30
2023-05-14T01:52:43.492Z,14.53
2023-05-14T01:56:45.283Z,14.37
2023-05-14T02:00:47.263Z,12.83
2023-05-14T02:04:55.822Z,13.50
2023-05-14T02:09:03.861Z,13.33
2023-05-14T02:13:12.839Z,13.37
2023-05-14T02:17:26.358Z,13.17
2023-05-14T02:21:34.800Z,13.57
2023-05-14T02:25:36.698Z,13.57
2023-05-14T02:29:38.441Z,14.57
2023-05-14T02:33:40.352Z,14.17
2023-05-14T02:37:42.142Z,13.63
2023-05-14T02:41:43.860Z,13.27
2023-05-14T02:45:45.700Z,14.63
2023-05-14T02:49:47.521Z,13.77
2023-05-14T02:53:49.296Z,14.73
2023-05-14T02:57:52.725Z,15.43
2023-05-14T03:01:54.483Z,15.00
2023-05-14T03:05:56.755Z,14.80
2023-05-14T03:10:00.414Z,13.80
2023-05-14T03:14:02.252Z,14.37
2023-05-14T03:18:04.067Z,14.40
2023-05-14T03:22:06.020Z,13.80
2023-05-14T03:26:08.480Z,14.03
2023-05-14T03:30:11.782Z,13.67
2023-05-14T03:34:14.839Z,14.60
2023-05-14T03:38:16.670Z,14.43
2023-05-14T03:42:18.421Z,12.93
2023-05-14T03:46:20.259Z,14.07
2023-05-14T03:50:25.517Z,13.87
2023-05-14T03:54:27.508Z,14.90
2023-05-14T03:58:29.214Z,13.60
2023-05-14T04:02:31.205Z,12.87
2023-05-14T04:06:44.838Z,13.50
2023-05-14T04:10:46.654Z,12.80
2023-05-14T04:14:48.393Z,12.80
2023-05-14T04:18:53.320Z,11.40
2023-05-14T04:22:55.170Z,11.73
2023-05-14T04:26:57.080Z,10.70
2023-05-14T04:30:58.834Z,11.70
2023-05-14T04:35:01.041Z,12.00
2023-05-14T04:39:02.998Z,11.37
2023-05-14T04:43:04.788Z,10.97
2023-05-14T04:47:07.049Z,10.40
2023-05-14T04:51:08.830Z,10.57
2023-05-14T04:55:10.897Z,10.27
2023-05-14T04:59:12.674Z,10.53
2023-05-14T05:03:14.645Z,10.33
2023-05-14T05:07:16.666Z,9.73
2023-05-14T05:11:18.525Z,9.70
2023-05-14T05:15:20.533Z,9.87
2023-05-14T05:19:35.584Z,9.95
2023-05-14T05:23:44.655Z,10.20
2023-05-14T05:27:46.460Z,9.63
2023-05-14T05:31:50.631Z,10.27
2023-05-14T05:35:52.634Z,8.95
2023-05-14T05:39:54.536Z,8.30
2023-05-14T05:43:56.228Z,8.93
2023-05-14T05:47:58.089Z,9.07
2023-05-14T05:51:59.888Z,8.77
2023-05-14T05:56:01.906Z,8.85
2023-05-14T06:00:13.255Z,10.30
2023-05-14T06:04:15.166Z,8.82
2023-05-14T06:08:19.908Z,9.35
2023-05-14T06:12:21.915Z,11.07
2023-05-14T06:16:35.842Z,9.52
2023-05-14T06:20:37.666Z,9.00
2023-05-14T06:24:39.589Z,8.55
2023-05-14T06:28:43.415Z,8.07
2023-05-14T06:32:45.177Z,9.15
2023-05-14T06:36:59.268Z,10.75
2023-05-14T06:41:02.343Z,8.68
2023-05-14T06:45:05.388Z,8.80
2023-05-14T06:49:07.301Z,8.20
2023-05-14T06:53:13.049Z,8.13
2023-05-14T06:57:47.912Z,8.32
2023-05-14T07:01:49.994Z,9.00
2023-05-14T07:06:35.478Z,8.45
2023-05-14T07:10:37.646Z,7.80
2023-05-14T07:14:39.439Z,6.97
2023-05-14T07:18:44.988Z,6.75
2023-05-14T07:22:47.128Z,10.27
2023-05-14T07:26:53.127Z,7.35
2023-05-14T07:30:58.440Z,6.78
2023-05-14T07:35:20.936Z,6.75
2023-05-14T07:39:22.688Z,5.88
2023-05-14T07:43:28.440Z,6.15
2023-05-14T07:47:35.984Z,6.20
2023-05-14T07:51:41.970Z,7.15
2023-05-14T07:55:53.217Z,6.70
2023-05-14T08:00:02.673Z,6.00
2023-05-14T08:04:07.456Z,5.93
2023-05-14T08:08:14.988Z,6.18
2023-05-14T08:12:16.917Z,6.05
2023-05-14T08:16:21.666Z,6.18
2023-05-14T08:20:25.537Z,6.30
2023-05-14T08:24:30.474Z,5.97
2023-05-14T08:28:34.716Z,5.78
2023-05-14T08:32:38.670Z,5.85
2023-05-14T08:36:40.589Z,6.15
2023-05-14T08:40:42.701Z,5.82
2023-05-14T08:45:18.880Z,6.00
2023-05-14T08:49:32.001Z,6.35
2023-05-14T08:53:33.864Z,6.65
2023-05-14T09:02:06.990Z,6.70
2023-05-14T09:06:08.929Z,6.13
2023-05-14T09:10:10.894Z,6.45
2023-05-14T09:14:12.671Z,6.25
2023-05-14T09:18:14.460Z,5.75
2023-05-14T09:22:17.487Z,6.00
2023-05-14T09:26:19.273Z,5.33
2023-05-14T09:30:21.051Z,4.90
2023-05-14T09:34:24.602Z,5.43
2023-05-14T09:38:32.853Z,4.63
2023-05-14T09:42:34.624Z,5.10
2023-05-14T09:46:36.361Z,4.67
2023-05-14T09:50:45.004Z,4.93
2023-05-14T09:54:49.337Z,5.23
2023-05-14T09:58:51.198Z,4.73
2023-05-14T10:03:06.040Z,5.17
2023-05-14T10:07:11.407Z,7.90
2023-05-14T10:11:24.320Z,6.03
2023-05-14T10:15:42.349Z,5.53
2023-05-14T10:19:51.390Z,5.83
2023-05-14T10:24:00.036Z,5.37
2023-05-14T10:28:01.994Z,4.33
2023-05-14T10:32:07.895Z,4.53
2023-05-14T10:36:12.963Z,5.13
2023-05-14T10:40:15.140Z,4.73
2023-05-14T10:44:17.498Z,5.00
2023-05-14T10:48:19.832Z,5.17
2023-05-14T10:52:23.548Z,5.90
2023-05-14T10:56:28.223Z,5.77
2023-05-14T11:00:31.024Z,5.40
2023-05-14T11:04:32.788Z,5.13
2023-05-14T11:08:34.537Z,6.27
2023-05-14T11:12:37.766Z,5.07
2023-05-14T11:16:47.146Z,4.70
2023-05-14T11:20:52.160Z,4.47
2023-05-14T11:25:02.459Z,4.87
2023-05-14T11:29:08.097Z,5.10
2023-05-14T11:33:13.437Z,4.97
2023-05-14T11:37:16.099Z,5.20
2023-05-14T11:41:18.008Z,5.17
2023-05-14T11:45:26.609Z,4.90
2023-05-14T11:49:31.938Z,4.83
2023-05-14T11:53:33.921Z,4.57
2023-05-14T11:57:35.939Z,4.90
2023-05-14T12:01:40.791Z,4.77
2023-05-14T12:06:01.647Z,4.70
2023-05-14T12:10:05.725Z,4.70
2023-05-14T12:14:15.665Z,4.73
2023-05-14T12:18:24.667Z,4.50
2023-05-14T12:22:28.059Z,4.30
2023-05-14T12:26:33.020Z,4.40
2023-05-14T12:30:38.110Z,4.10
2023-05-14T12:34:39.959Z,4.03
2023-05-14T12:38:41.903Z,3.90
2023-05-14T12:42:43.654Z,3.87
2023-05-14T12:46:47.482Z,4.00
2023-05-14T12:50:49.488Z,3.87
2023-05-14T12:54:51.372Z,3.67
2023-05-14T12:58:53.916Z,3.37
2023-05-14T13:02:55.784Z,3.23
2023-05-14T13:06:57.561Z,3.57
2023-05-14T13:11:04.067Z,3.07
2023-05-14T13:15:09.640Z,3.13
2023-05-14T13:19:11.733Z,3.70
2023-05-14T13:23:14.399Z,3.73
2023-05-14T13:27:16.219Z,3.97
2023-05-14T13:31:18.050Z,3.50
2023-05-14T13:35:19.868Z,3.70
2023-05-14T13:39:29.269Z,4.23
2023-05-14T13:43:31.898Z,4.20
2023-05-14T13:47:36.549Z,4.63
2023-05-14T13:51:38.413Z,4.13
2023-05-14T13:55:40.408Z,4.00
2023-05-14T13:59:42.447Z,3.87
2023-05-14T14:03:44.320Z,4.47
2023-05-14T14:07:47.582Z,4.33
2023-05-14T14:11:50.412Z,4.37
2023-05-14T14:15:52.348Z,4.20
2023-05-14T14:19:54.246Z,3.90
2023-05-14T14:23:56.135Z,3.90
2023-05-14T14:27:58.077Z,3.73
2023-05-14T14:32:00.141Z,3.10
2023-05-14T14:36:02.001Z,3.90
2023-05-14T14:40:07.560Z,4.10
2023-05-14T14:44:09.377Z,3.83
2023-05-14T14:48:31.874Z,4.37
2023-05-14T14:52:34.070Z,4.63
2023-05-14T14:56:35.886Z,3.87
2023-05-14T15:00:40.654Z,4.00
2023-05-14T15:04:45.227Z,4.87
2023-05-14T15:08:47.002Z,6.00
2023-05-14T15:12:48.781Z,4.67
2023-05-14T15:16:51.608Z,4.90
2023-05-14T15:21:00.171Z,4.97
2023-05-14T15:25:01.950Z,4.40
2023-05-14T15:29:06.421Z,3.90
2023-05-14T15:33:08.868Z,4.70
2023-05-14T15:37:22.542Z,4.40
2023-05-14T15:42:41.964Z,4.40
2023-05-14T15:46:17.858Z,4.50
2023-05-14T15:50:21.201Z,3.87
2023-05-14T15:54:29.667Z,4.97
2023-05-14T15:58:34.139Z,5.73
2023-05-14T16:02:50.839Z,4.90
2023-05-14T16:06:56.625Z,5.37
2023-05-14T16:10:59.777Z,5.23
2023-05-14T16:15:07.406Z,4.40
2023-05-14T16:19:09.427Z,5.50
2023-05-14T16:23:11.444Z,4.43
2023-05-14T16:29:02.579Z,2.90
2023-05-14T16:33:02.569Z,2.67
2023-05-14T16:37:15.160Z,2.50
2023-05-14T16:41:16.922Z,2.93
2023-05-14T16:45:19.010Z,3.53
2023-05-14T16:49:22.539Z,4.57
2023-05-14T16:53:24.494Z,4.37
2023-05-14T16:57:26.866Z,4.00
2023-05-14T17:01:29.793Z,4.10
2023-05-14T17:05:31.606Z,4.70
2023-05-14T17:09:33.576Z,4.50
2023-05-14T17:14:00.981Z,4.77
2023-05-14T17:18:02.991Z,4.30
2023-05-14T17:22:08.833Z,4.27
2023-05-14T17:26:12.378Z,3.93
2023-05-14T17:30:14.305Z,3.80
2023-05-14T17:34:17.820Z,4.10
2023-05-14T17:38:19.715Z,3.40
2023-05-14T17:42:24.396Z,2.63
2023-05-14T17:46:26.352Z,2.80
2023-05-14T17:50:29.344Z,3.10
2023-05-14T17:54:31.253Z,3.30
2023-05-14T17:58:33.204Z,3.33
2023-05-14T18:02:40.881Z,3.87
2023-05-14T18:07:01.935Z,4.10
2023-05-14T18:11:04.582Z,4.40
2023-05-14T18:15:07.098Z,4.53
2023-05-14T18:19:33.271Z,4.77
2023-05-14T18:23:47.688Z,5.27
2023-05-14T18:28:00.827Z,5.40
2023-05-14T18:32:05.316Z,5.07
2023-05-14T18:36:09.779Z,6.13
2023-05-14T18:40:59.670Z,4.90
2023-05-14T18:45:12.462Z,5.20
2023-05-14T18:49:14.183Z,6.37
2023-05-14T18:53:16.147Z,5.07
2023-05-14T18:57:17.974Z,5.17
2023-05-14T19:01:29.400Z,5.40
2023-05-14T19:05:31.454Z,5.07
2023-05-14T19:09:43.309Z,4.23
2023-05-14T19:13:54.443Z,4.67
2023-05-14T19:27:44.357Z,4.57
2023-05-14T19:32:23.304Z,3.87
2023-05-14T19:36:50.523Z,4.30
2023-05-14T19:40:58.835Z,3.70
2023-05-14T19:45:06.839Z,3.63
2023-05-14T19:49:15.218Z,3.97
2023-05-14T19:53:27.631Z,4.40
2023-05-14T19:58:01.702Z,4.17
2023-05-14T20:02:20.076Z,3.60
2023-05-14T20:06:25.106Z,5.57
2023-05-14T20:10:31.858Z,4.60
2023-05-14T20:23:49.043Z,4.17
2023-05-14T20:28:00.578Z,3.60
2023-05-14T20:32:04.912Z,3.50
2023-05-14T20:36:06.841Z,3.30
2023-05-14T20:40:15.024Z,4.13
2023-05-14T20:44:17.848Z,3.80
2023-05-14T20:48:22.094Z,4.17
2023-05-14T20:52:23.878Z,3.87
2023-05-14T20:56:26.517Z,4.27
2023-05-14T21:00:28.251Z,3.40
2023-05-14T21:04:30.119Z,3.40
2023-05-14T21:08:35.496Z,3.53
2023-05-14T21:12:37.252Z,3.60
2023-05-14T21:16:39.122Z,3.70
2023-05-14T21:20:40.993Z,3.70
2023-05-14T21:24:42.815Z,4.13
2023-05-14T21:28:44.580Z,3.40
2023-05-14T21:32:46.401Z,3.23
2023-05-14T21:36:48.243Z,3.13
2023-05-14T21:40:50.105Z,3.90
2023-05-14T21:44:51.828Z,4.07
2023-05-14T21:48:53.742Z,3.90
2023-05-14T21:52:55.607Z,4.07
2023-05-14T21:57:01.613Z,3.53
2023-05-14T22:01:03.467Z,4.17
2023-05-14T22:05:05.765Z,4.57
2023-05-14T22:09:09.585Z,3.80
2023-05-14T22:13:11.377Z,4.40
2023-05-14T22:17:15.965Z,4.13
2023-05-14T22:21:17.784Z,4.57
2023-05-14T22:25:19.499Z,5.03
2023-05-14T22:29:21.271Z,5.00
2023-05-14T22:33:23.057Z,4.93
2023-05-14T22:37:24.894Z,5.03
2023-05-14T22:41:26.821Z,4.90
2023-05-14T22:45:28.621Z,4.83
2023-05-14T22:49:30.360Z,4.93
2023-05-14T22:53:34.633Z,5.10
2023-05-14T22:57:36.548Z,4.57
2023-05-14T23:01:38.657Z,4.77
2023-05-14T23:05:40.590Z,4.33
2023-05-14T23:09:42.387Z,4.20
2023-05-14T23:13:44.442Z,4.73
2023-05-14T23:17:46.334Z,4.33
2023-05-14T23:21:48.172Z,4.20
2023-05-14T23:25:50.438Z,4.47
2023-05-14T23:29:52.282Z,5.27
2023-05-14T23:33:54.058Z,4.70
2023-05-14T23:37:55.900Z,5.33
2023-05-14T23:42:00.161Z,5.63
2023-05-14T23:46:02.014Z,5.13
2023-05-14T23:50:04.024Z,5.67
2023-05-14T23:54:08.295Z,4.87
2023-05-14T23:58:10.015Z,5.10
